sensor_id;sensor_type;location;lat;lon;timestamp;temperature;humidity
35700;DHT22;21818;51.078;12.108;2023-12-22T00:02:16;14.80;84.40
35700;DHT22;21818;51.078;12.108;2023-12-22T00:04:42;14.80;84.40
35700;DHT22;21818;51.078;12.108;2023-12-22T00:07:07;14.80;84.40
35700;DHT22;21818;51.078;12.108;2023-12-22T00:09:33;14.80;84.40
35700;DHT22;21818;51.078;12.108;2023-12-22T00:11:58;14.80;84.40
35700;DHT22;21818;51.078;12.108;2023-12-22T00:14:24;14.80;84.30
35700;DHT22;21818;51.078;12.108;2023-12-22T00:16:49;14.80;84.30
35700;DHT22;21818;51.078;12.108;2023-12-22T00:19:15;14.80;84.40
35700;DHT22;21818;51.078;12.108;2023-12-22T00:21:40;14.90;84.50
35700;DHT22;21818;51.078;12.108;2023-12-22T00:24:06;14.90;84.50
35700;DHT22;21818;51.078;12.108;2023-12-22T00:26:32;14.90;84.50
35700;DHT22;21818;51.078;12.108;2023-12-22T00:28:57;14.90;84.50
35700;DHT22;21818;51.078;12.108;2023-12-22T00:31:23;14.90;84.50
35700;DHT22;21818;51.078;12.108;2023-12-22T00:33:48;14.90;84.50
35700;DHT22;21818;51.078;12.108;2023-12-22T00:36:14;14.90;84.50
35700;DHT22;21818;51.078;12.108;2023-12-22T00:38:40;14.90;84.60
35700;DHT22;21818;51.078;12.108;2023-12-22T00:41:06;14.90;84.60
35700;DHT22;21818;51.078;12.108;2023-12-22T00:43:31;14.90;84.70
35700;DHT22;21818;51.078;12.108;2023-12-22T00:45:57;14.90;84.70
35700;DHT22;21818;51.078;12.108;2023-12-22T00:48:23;14.90;84.70
35700;DHT22;21818;51.078;12.108;2023-12-22T00:50:48;14.90;84.80
35700;DHT22;21818;51.078;12.108;2023-12-22T00:53:14;14.90;85.00
35700;DHT22;21818;51.078;12.108;2023-12-22T00:55:40;14.90;85.10
35700;DHT22;21818;51.078;12.108;2023-12-22T00:58:05;14.90;85.20
35700;DHT22;21818;51.078;12.108;2023-12-22T01:00:31;14.90;85.30
35700;DHT22;21818;51.078;12.108;2023-12-22T01:02:56;14.90;85.40
35700;DHT22;21818;51.078;12.108;2023-12-22T01:05:22;14.90;85.50
35700;DHT22;21818;51.078;12.108;2023-12-22T01:07:48;14.90;85.60
35700;DHT22;21818;51.078;12.108;2023-12-22T01:10:13;14.90;85.60
35700;DHT22;21818;51.078;12.108;2023-12-22T01:12:39;14.90;85.70
35700;DHT22;21818;51.078;12.108;2023-12-22T01:15:05;14.90;85.70
35700;DHT22;21818;51.078;12.108;2023-12-22T01:17:31;14.90;85.60
35700;DHT22;21818;51.078;12.108;2023-12-22T01:19:56;14.90;85.70
35700;DHT22;21818;51.078;12.108;2023-12-22T01:22:22;14.90;85.70
35700;DHT22;21818;51.078;12.108;2023-12-22T01:24:48;14.90;85.70
35700;DHT22;21818;51.078;12.108;2023-12-22T01:27:14;14.90;85.70
35700;DHT22;21818;51.078;12.108;2023-12-22T01:29:39;14.90;85.70
35700;DHT22;21818;51.078;12.108;2023-12-22T01:32:05;15.00;85.70
35700;DHT22;21818;51.078;12.108;2023-12-22T01:34:31;15.00;85.70
35700;DHT22;21818;51.078;12.108;2023-12-22T01:36:56;15.00;85.70
35700;DHT22;21818;51.078;12.108;2023-12-22T01:39:22;15.00;85.70
35700;DHT22;21818;51.078;12.108;2023-12-22T01:41:47;15.00;85.70
35700;DHT22;21818;51.078;12.108;2023-12-22T01:44:13;15.00;85.70
35700;DHT22;21818;51.078;12.108;2023-12-22T01:46:39;15.00;85.80
35700;DHT22;21818;51.078;12.108;2023-12-22T01:49:05;15.00;85.80
35700;DHT22;21818;51.078;12.108;2023-12-22T01:51:33;15.00;85.80
35700;DHT22;21818;51.078;12.108;2023-12-22T01:54:00;15.00;85.70
35700;DHT22;21818;51.078;12.108;2023-12-22T01:56:26;15.00;85.70
35700;DHT22;21818;51.078;12.108;2023-12-22T01:58:59;15.00;85.70
35700;DHT22;21818;51.078;12.108;2023-12-22T02:01:24;14.90;85.60
35700;DHT22;21818;51.078;12.108;2023-12-22T02:03:51;14.90;85.60
35700;DHT22;21818;51.078;12.108;2023-12-22T02:06:18;14.90;85.70
35700;DHT22;21818;51.078;12.108;2023-12-22T02:08:48;14.90;85.80
35700;DHT22;21818;51.078;12.108;2023-12-22T02:11:14;14.90;85.80
35700;DHT22;21818;51.078;12.108;2023-12-22T02:13:41;14.90;85.80
35700;DHT22;21818;51.078;12.108;2023-12-22T02:16:20;14.90;85.80
35700;DHT22;21818;51.078;12.108;2023-12-22T02:18:53;14.90;85.90
35700;DHT22;21818;51.078;12.108;2023-12-22T02:21:20;14.90;85.90
35700;DHT22;21818;51.078;12.108;2023-12-22T02:23:47;14.90;85.90
35700;DHT22;21818;51.078;12.108;2023-12-22T02:26:24;14.90;86.40
35700;DHT22;21818;51.078;12.108;2023-12-22T02:28:51;14.80;85.80
35700;DHT22;21818;51.078;12.108;2023-12-22T02:31:25;14.80;85.80
35700;DHT22;21818;51.078;12.108;2023-12-22T02:33:54;14.80;85.80
35700;DHT22;21818;51.078;12.108;2023-12-22T02:36:21;14.80;85.80
35700;DHT22;21818;51.078;12.108;2023-12-22T02:38:48;14.80;85.80
35700;DHT22;21818;51.078;12.108;2023-12-22T02:41:14;14.80;85.80
35700;DHT22;21818;51.078;12.108;2023-12-22T02:43:40;14.80;85.80
35700;DHT22;21818;51.078;12.108;2023-12-22T02:46:14;14.80;85.80
35700;DHT22;21818;51.078;12.108;2023-12-22T02:48:40;14.80;85.80
35700;DHT22;21818;51.078;12.108;2023-12-22T02:51:06;14.80;85.80
35700;DHT22;21818;51.078;12.108;2023-12-22T02:53:31;14.80;85.80
35700;DHT22;21818;51.078;12.108;2023-12-22T02:55:57;14.80;85.80
35700;DHT22;21818;51.078;12.108;2023-12-22T02:58:22;14.80;85.80
35700;DHT22;21818;51.078;12.108;2023-12-22T03:00:48;14.80;85.80
35700;DHT22;21818;51.078;12.108;2023-12-22T03:03:13;14.80;85.80
35700;DHT22;21818;51.078;12.108;2023-12-22T03:05:39;14.80;85.80
35700;DHT22;21818;51.078;12.108;2023-12-22T03:08:05;14.80;85.80
35700;DHT22;21818;51.078;12.108;2023-12-22T03:10:30;14.80;85.90
35700;DHT22;21818;51.078;12.108;2023-12-22T03:12:56;14.80;85.80
35700;DHT22;21818;51.078;12.108;2023-12-22T03:15:21;14.80;85.90
35700;DHT22;21818;51.078;12.108;2023-12-22T03:17:47;14.80;86.30
35700;DHT22;21818;51.078;12.108;2023-12-22T03:20:12;14.80;85.80
35700;DHT22;21818;51.078;12.108;2023-12-22T03:22:38;14.80;85.80
35700;DHT22;21818;51.078;12.108;2023-12-22T03:25:04;14.80;85.80
35700;DHT22;21818;51.078;12.108;2023-12-22T03:27:29;14.80;85.90
35700;DHT22;21818;51.078;12.108;2023-12-22T03:29:55;14.80;85.90
35700;DHT22;21818;51.078;12.108;2023-12-22T03:32:20;14.80;86.00
35700;DHT22;21818;51.078;12.108;2023-12-22T03:34:46;14.80;85.90
35700;DHT22;21818;51.078;12.108;2023-12-22T03:37:11;14.80;85.90
35700;DHT22;21818;51.078;12.108;2023-12-22T03:39:37;14.80;85.90
35700;DHT22;21818;51.078;12.108;2023-12-22T03:42:03;14.80;85.90
35700;DHT22;21818;51.078;12.108;2023-12-22T03:44:28;14.80;86.00
35700;DHT22;21818;51.078;12.108;2023-12-22T03:46:54;14.80;86.10
35700;DHT22;21818;51.078;12.108;2023-12-22T03:49:19;14.80;86.10
35700;DHT22;21818;51.078;12.108;2023-12-22T03:51:45;14.80;86.10
35700;DHT22;21818;51.078;12.108;2023-12-22T03:54:11;14.80;86.10
35700;DHT22;21818;51.078;12.108;2023-12-22T03:56:37;14.80;86.20
35700;DHT22;21818;51.078;12.108;2023-12-22T03:59:02;14.80;86.20
35700;DHT22;21818;51.078;12.108;2023-12-22T04:01:28;14.70;86.10
35700;DHT22;21818;51.078;12.108;2023-12-22T04:03:53;14.80;86.20
35700;DHT22;21818;51.078;12.108;2023-12-22T04:06:19;14.70;86.10
35700;DHT22;21818;51.078;12.108;2023-12-22T04:08:45;14.70;86.10
35700;DHT22;21818;51.078;12.108;2023-12-22T04:11:10;14.70;86.10
35700;DHT22;21818;51.078;12.108;2023-12-22T04:13:36;14.80;86.20
35700;DHT22;21818;51.078;12.108;2023-12-22T04:16:02;14.80;86.20
35700;DHT22;21818;51.078;12.108;2023-12-22T04:18:30;14.80;86.10
35700;DHT22;21818;51.078;12.108;2023-12-22T04:20:55;14.70;86.10
35700;DHT22;21818;51.078;12.108;2023-12-22T04:23:21;14.80;86.20
35700;DHT22;21818;51.078;12.108;2023-12-22T04:25:46;14.80;86.20
35700;DHT22;21818;51.078;12.108;2023-12-22T04:28:12;14.80;86.30
35700;DHT22;21818;51.078;12.108;2023-12-22T04:30:38;14.80;86.30
35700;DHT22;21818;51.078;12.108;2023-12-22T04:33:03;14.80;86.40
35700;DHT22;21818;51.078;12.108;2023-12-22T04:35:29;14.80;86.40
35700;DHT22;21818;51.078;12.108;2023-12-22T04:37:55;14.80;86.40
35700;DHT22;21818;51.078;12.108;2023-12-22T04:40:20;14.80;86.40
35700;DHT22;21818;51.078;12.108;2023-12-22T04:42:46;14.80;86.50
35700;DHT22;21818;51.078;12.108;2023-12-22T04:45:12;14.80;86.50
35700;DHT22;21818;51.078;12.108;2023-12-22T04:47:37;14.80;86.50
35700;DHT22;21818;51.078;12.108;2023-12-22T04:50:03;14.80;86.50
35700;DHT22;21818;51.078;12.108;2023-12-22T04:52:29;14.80;86.50
35700;DHT22;21818;51.078;12.108;2023-12-22T04:54:54;14.80;86.60
35700;DHT22;21818;51.078;12.108;2023-12-22T04:57:20;14.80;86.60
35700;DHT22;21818;51.078;12.108;2023-12-22T04:59:47;14.70;86.60
35700;DHT22;21818;51.078;12.108;2023-12-22T05:02:12;14.70;86.60
35700;DHT22;21818;51.078;12.108;2023-12-22T05:04:38;14.70;86.60
35700;DHT22;21818;51.078;12.108;2023-12-22T05:07:04;14.70;86.70
35700;DHT22;21818;51.078;12.108;2023-12-22T05:09:33;14.70;86.70
35700;DHT22;21818;51.078;12.108;2023-12-22T05:11:59;14.70;86.70
35700;DHT22;21818;51.078;12.108;2023-12-22T05:14:24;14.70;86.70
35700;DHT22;21818;51.078;12.108;2023-12-22T05:16:50;14.70;86.70
35700;DHT22;21818;51.078;12.108;2023-12-22T05:19:20;14.70;86.70
35700;DHT22;21818;51.078;12.108;2023-12-22T05:21:46;14.70;86.60
35700;DHT22;21818;51.078;12.108;2023-12-22T05:24:11;14.60;86.60
35700;DHT22;21818;51.078;12.108;2023-12-22T05:26:37;14.70;86.60
35700;DHT22;21818;51.078;12.108;2023-12-22T05:29:02;14.70;87.10
35700;DHT22;21818;51.078;12.108;2023-12-22T05:31:28;14.70;86.60
35700;DHT22;21818;51.078;12.108;2023-12-22T05:33:54;14.70;86.50
35700;DHT22;21818;51.078;12.108;2023-12-22T05:36:20;14.70;86.50
35700;DHT22;21818;51.078;12.108;2023-12-22T05:38:46;14.70;86.50
35700;DHT22;21818;51.078;12.108;2023-12-22T05:41:13;14.60;86.50
35700;DHT22;21818;51.078;12.108;2023-12-22T05:43:38;14.70;86.60
35700;DHT22;21818;51.078;12.108;2023-12-22T05:46:04;14.70;86.60
35700;DHT22;21818;51.078;12.108;2023-12-22T05:48:29;14.60;86.60
35700;DHT22;21818;51.078;12.108;2023-12-22T05:50:58;14.60;86.60
35700;DHT22;21818;51.078;12.108;2023-12-22T05:53:23;14.60;86.60
35700;DHT22;21818;51.078;12.108;2023-12-22T05:55:49;14.60;86.60
35700;DHT22;21818;51.078;12.108;2023-12-22T05:58:15;14.60;86.60
35700;DHT22;21818;51.078;12.108;2023-12-22T06:00:40;14.60;86.70
35700;DHT22;21818;51.078;12.108;2023-12-22T06:03:06;14.60;86.70
35700;DHT22;21818;51.078;12.108;2023-12-22T06:05:31;14.60;86.70
35700;DHT22;21818;51.078;12.108;2023-12-22T06:07:57;14.60;86.70
35700;DHT22;21818;51.078;12.108;2023-12-22T06:10:22;14.60;86.70
35700;DHT22;21818;51.078;12.108;2023-12-22T06:12:48;14.60;86.70
35700;DHT22;21818;51.078;12.108;2023-12-22T06:15:14;14.60;86.70
35700;DHT22;21818;51.078;12.108;2023-12-22T06:17:39;14.60;86.70
35700;DHT22;21818;51.078;12.108;2023-12-22T06:20:05;14.60;86.70
35700;DHT22;21818;51.078;12.108;2023-12-22T06:22:31;14.60;86.70
35700;DHT22;21818;51.078;12.108;2023-12-22T06:24:57;14.50;86.60
35700;DHT22;21818;51.078;12.108;2023-12-22T06:27:23;14.50;86.60
35700;DHT22;21818;51.078;12.108;2023-12-22T06:29:48;14.60;86.70
35700;DHT22;21818;51.078;12.108;2023-12-22T06:32:14;14.60;86.70
35700;DHT22;21818;51.078;12.108;2023-12-22T06:34:39;14.50;86.70
35700;DHT22;21818;51.078;12.108;2023-12-22T06:37:05;14.60;86.80
35700;DHT22;21818;51.078;12.108;2023-12-22T06:39:33;14.50;86.80
35700;DHT22;21818;51.078;12.108;2023-12-22T06:41:58;14.60;86.90
35700;DHT22;21818;51.078;12.108;2023-12-22T06:44:24;14.60;86.90
35700;DHT22;21818;51.078;12.108;2023-12-22T06:46:51;14.60;86.90
35700;DHT22;21818;51.078;12.108;2023-12-22T06:49:16;14.60;86.90
35700;DHT22;21818;51.078;12.108;2023-12-22T06:51:42;14.60;86.90
35700;DHT22;21818;51.078;12.108;2023-12-22T06:54:07;14.60;86.90
35700;DHT22;21818;51.078;12.108;2023-12-22T06:56:34;14.60;86.90
35700;DHT22;21818;51.078;12.108;2023-12-22T06:59:00;14.60;86.80
35700;DHT22;21818;51.078;12.108;2023-12-22T07:01:30;14.60;86.70
35700;DHT22;21818;51.078;12.108;2023-12-22T07:04:00;14.60;86.70
35700;DHT22;21818;51.078;12.108;2023-12-22T07:06:29;14.50;86.60
35700;DHT22;21818;51.078;12.108;2023-12-22T07:11:47;14.50;86.50
35700;DHT22;21818;51.078;12.108;2023-12-22T07:14:13;14.50;86.50
35700;DHT22;21818;51.078;12.108;2023-12-22T07:16:39;14.50;86.40
35700;DHT22;21818;51.078;12.108;2023-12-22T07:19:04;14.50;86.40
35700;DHT22;21818;51.078;12.108;2023-12-22T07:21:30;14.50;86.40
35700;DHT22;21818;51.078;12.108;2023-12-22T07:23:56;14.50;86.30
35700;DHT22;21818;51.078;12.108;2023-12-22T07:26:23;14.50;86.30
35700;DHT22;21818;51.078;12.108;2023-12-22T07:28:49;14.50;86.30
35700;DHT22;21818;51.078;12.108;2023-12-22T07:31:15;14.40;85.20
35700;DHT22;21818;51.078;12.108;2023-12-22T07:33:40;13.50;82.10
35700;DHT22;21818;51.078;12.108;2023-12-22T07:36:07;12.40;83.20
35700;DHT22;21818;51.078;12.108;2023-12-22T07:38:32;11.80;82.90
35700;DHT22;21818;51.078;12.108;2023-12-22T07:40:58;11.40;85.40
35700;DHT22;21818;51.078;12.108;2023-12-22T07:43:24;11.80;86.10
35700;DHT22;21818;51.078;12.108;2023-12-22T07:45:50;12.40;85.50
35700;DHT22;21818;51.078;12.108;2023-12-22T07:48:19;12.80;84.40
35700;DHT22;21818;51.078;12.108;2023-12-22T07:50:45;13.20;83.50
35700;DHT22;21818;51.078;12.108;2023-12-22T07:53:11;13.40;82.80
35700;DHT22;21818;51.078;12.108;2023-12-22T07:55:36;13.60;82.40
35700;DHT22;21818;51.078;12.108;2023-12-22T07:58:04;13.70;82.10
35700;DHT22;21818;51.078;12.108;2023-12-22T08:00:31;13.80;82.00
35700;DHT22;21818;51.078;12.108;2023-12-22T08:02:56;13.80;81.80
35700;DHT22;21818;51.078;12.108;2023-12-22T08:05:22;13.90;81.80
35700;DHT22;21818;51.078;12.108;2023-12-22T08:07:47;13.90;81.70
35700;DHT22;21818;51.078;12.108;2023-12-22T08:10:13;13.90;81.60
35700;DHT22;21818;51.078;12.108;2023-12-22T08:46:18;14.10;81.30
35700;DHT22;21818;51.078;12.108;2023-12-22T08:48:44;14.10;81.20
35700;DHT22;21818;51.078;12.108;2023-12-22T08:51:09;14.10;81.20
35700;DHT22;21818;51.078;12.108;2023-12-22T08:53:35;14.10;81.20
35700;DHT22;21818;51.078;12.108;2023-12-22T08:56:03;14.10;81.20
35700;DHT22;21818;51.078;12.108;2023-12-22T08:58:29;14.10;81.20
35700;DHT22;21818;51.078;12.108;2023-12-22T09:00:55;14.10;81.20
35700;DHT22;21818;51.078;12.108;2023-12-22T09:03:21;14.10;81.20
35700;DHT22;21818;51.078;12.108;2023-12-22T09:05:46;14.10;81.10
35700;DHT22;21818;51.078;12.108;2023-12-22T09:08:12;14.10;81.10
35700;DHT22;21818;51.078;12.108;2023-12-22T09:10:38;14.10;81.10
35700;DHT22;21818;51.078;12.108;2023-12-22T09:13:04;14.10;81.10
35700;DHT22;21818;51.078;12.108;2023-12-22T09:15:29;14.10;81.10
35700;DHT22;21818;51.078;12.108;2023-12-22T09:17:55;14.10;81.10
35700;DHT22;21818;51.078;12.108;2023-12-22T09:20:21;14.10;81.10
35700;DHT22;21818;51.078;12.108;2023-12-22T09:22:47;14.10;81.10
35700;DHT22;21818;51.078;12.108;2023-12-22T09:25:12;14.10;81.10
35700;DHT22;21818;51.078;12.108;2023-12-22T09:27:38;14.10;81.10
35700;DHT22;21818;51.078;12.108;2023-12-22T09:30:04;14.10;81.10
35700;DHT22;21818;51.078;12.108;2023-12-22T09:32:32;14.20;81.10
35700;DHT22;21818;51.078;12.108;2023-12-22T09:34:58;14.10;81.00
35700;DHT22;21818;51.078;12.108;2023-12-22T09:37:24;14.20;81.00
35700;DHT22;21818;51.078;12.108;2023-12-22T09:39:50;14.10;81.00
35700;DHT22;21818;51.078;12.108;2023-12-22T09:42:15;14.20;81.00
35700;DHT22;21818;51.078;12.108;2023-12-22T09:44:42;14.20;81.00
35700;DHT22;21818;51.078;12.108;2023-12-22T09:47:09;14.20;81.00
35700;DHT22;21818;51.078;12.108;2023-12-22T09:49:37;14.20;81.00
35700;DHT22;21818;51.078;12.108;2023-12-22T09:52:04;14.20;81.00
35700;DHT22;21818;51.078;12.108;2023-12-22T09:54:31;14.20;81.00
35700;DHT22;21818;51.078;12.108;2023-12-22T09:56:58;14.20;81.00
35700;DHT22;21818;51.078;12.108;2023-12-22T09:59:25;14.20;81.00
35700;DHT22;21818;51.078;12.108;2023-12-22T10:01:52;14.20;81.00
35700;DHT22;21818;51.078;12.108;2023-12-22T10:04:20;14.20;81.00
35700;DHT22;21818;51.078;12.108;2023-12-22T10:06:47;14.20;81.00
35700;DHT22;21818;51.078;12.108;2023-12-22T10:09:16;14.10;80.90
35700;DHT22;21818;51.078;12.108;2023-12-22T10:11:43;14.10;80.90
35700;DHT22;21818;51.078;12.108;2023-12-22T10:14:09;14.10;80.90
35700;DHT22;21818;51.078;12.108;2023-12-22T10:16:36;14.20;80.90
35700;DHT22;21818;51.078;12.108;2023-12-22T10:19:03;14.20;80.90
35700;DHT22;21818;51.078;12.108;2023-12-22T10:21:28;14.10;80.80
35700;DHT22;21818;51.078;12.108;2023-12-22T10:23:56;14.20;80.80
35700;DHT22;21818;51.078;12.108;2023-12-22T10:26:22;14.20;80.80
35700;DHT22;21818;51.078;12.108;2023-12-22T10:28:48;14.20;80.90
35700;DHT22;21818;51.078;12.108;2023-12-22T10:31:14;14.10;80.70
35700;DHT22;21818;51.078;12.108;2023-12-22T10:33:40;14.20;80.70
35700;DHT22;21818;51.078;12.108;2023-12-22T10:36:07;14.20;80.70
35700;DHT22;21818;51.078;12.108;2023-12-22T10:38:33;14.20;80.70
35700;DHT22;21818;51.078;12.108;2023-12-22T10:41:03;14.20;80.60
35700;DHT22;21818;51.078;12.108;2023-12-22T10:43:29;14.20;80.60
35700;DHT22;21818;51.078;12.108;2023-12-22T10:45:55;14.20;80.60
35700;DHT22;21818;51.078;12.108;2023-12-22T10:48:22;14.10;80.60
35700;DHT22;21818;51.078;12.108;2023-12-22T10:50:48;14.10;80.50
35700;DHT22;21818;51.078;12.108;2023-12-22T10:53:14;14.10;80.50
35700;DHT22;21818;51.078;12.108;2023-12-22T10:55:40;14.20;80.50
35700;DHT22;21818;51.078;12.108;2023-12-22T10:58:06;14.10;80.40
35700;DHT22;21818;51.078;12.108;2023-12-22T11:00:37;14.20;80.50
35700;DHT22;21818;51.078;12.108;2023-12-22T11:03:08;14.10;80.40
35700;DHT22;21818;51.078;12.108;2023-12-22T11:05:37;14.10;80.40
35700;DHT22;21818;51.078;12.108;2023-12-22T11:08:03;14.10;80.40
35700;DHT22;21818;51.078;12.108;2023-12-22T11:10:31;14.10;80.30
35700;DHT22;21818;51.078;12.108;2023-12-22T11:12:57;14.10;80.30
35700;DHT22;21818;51.078;12.108;2023-12-22T11:15:24;14.10;80.30
35700;DHT22;21818;51.078;12.108;2023-12-22T11:17:51;14.10;80.30
35700;DHT22;21818;51.078;12.108;2023-12-22T11:20:18;14.10;80.30
35700;DHT22;21818;51.078;12.108;2023-12-22T11:22:44;14.10;80.30
35700;DHT22;21818;51.078;12.108;2023-12-22T11:25:10;14.10;80.30
35700;DHT22;21818;51.078;12.108;2023-12-22T11:27:37;14.10;80.20
35700;DHT22;21818;51.078;12.108;2023-12-22T11:30:04;14.10;80.20
35700;DHT22;21818;51.078;12.108;2023-12-22T11:32:34;14.10;80.20
35700;DHT22;21818;51.078;12.108;2023-12-22T11:35:00;14.10;80.20
35700;DHT22;21818;51.078;12.108;2023-12-22T11:37:25;14.10;80.20
35700;DHT22;21818;51.078;12.108;2023-12-22T11:39:51;14.10;80.80
35700;DHT22;21818;51.078;12.108;2023-12-22T11:42:40;14.30;80.70
35700;DHT22;21818;51.078;12.108;2023-12-22T11:45:11;14.30;81.00
35700;DHT22;21818;51.078;12.108;2023-12-22T11:47:38;14.30;80.90
35700;DHT22;21818;51.078;12.108;2023-12-22T11:50:09;14.30;80.90
35700;DHT22;21818;51.078;12.108;2023-12-22T11:52:35;14.30;81.00
35700;DHT22;21818;51.078;12.108;2023-12-22T11:55:00;14.20;81.00
35700;DHT22;21818;51.078;12.108;2023-12-22T11:57:36;14.20;81.00
35700;DHT22;21818;51.078;12.108;2023-12-22T12:00:10;14.20;81.00
35700;DHT22;21818;51.078;12.108;2023-12-22T12:02:56;14.10;81.00
35700;DHT22;21818;51.078;12.108;2023-12-22T12:05:22;14.10;81.00
35700;DHT22;21818;51.078;12.108;2023-12-22T12:07:48;14.10;81.00
35700;DHT22;21818;51.078;12.108;2023-12-22T12:13:09;14.20;81.00
35700;DHT22;21818;51.078;12.108;2023-12-22T12:15:35;14.20;80.90
35700;DHT22;21818;51.078;12.108;2023-12-22T12:18:05;14.10;80.90
35700;DHT22;21818;51.078;12.108;2023-12-22T12:20:33;14.10;80.80
35700;DHT22;21818;51.078;12.108;2023-12-22T12:23:01;14.10;80.80
35700;DHT22;21818;51.078;12.108;2023-12-22T12:25:32;14.20;80.80
35700;DHT22;21818;51.078;12.108;2023-12-22T12:28:01;14.10;80.70
35700;DHT22;21818;51.078;12.108;2023-12-22T12:30:27;14.10;80.50
35700;DHT22;21818;51.078;12.108;2023-12-22T12:32:54;14.10;80.70
35700;DHT22;21818;51.078;12.108;2023-12-22T12:35:20;14.10;80.60
35700;DHT22;21818;51.078;12.108;2023-12-22T12:37:47;14.10;80.60
35700;DHT22;21818;51.078;12.108;2023-12-22T12:40:15;14.10;80.60
35700;DHT22;21818;51.078;12.108;2023-12-22T12:42:44;14.10;80.60
35700;DHT22;21818;51.078;12.108;2023-12-22T12:45:11;14.10;80.40
35700;DHT22;21818;51.078;12.108;2023-12-22T12:47:36;14.10;80.50
35700;DHT22;21818;51.078;12.108;2023-12-22T12:50:02;14.10;80.50
35700;DHT22;21818;51.078;12.108;2023-12-22T12:52:28;14.10;80.50
35700;DHT22;21818;51.078;12.108;2023-12-22T12:54:54;14.10;80.50
35700;DHT22;21818;51.078;12.108;2023-12-22T12:57:21;14.10;80.50
35700;DHT22;21818;51.078;12.108;2023-12-22T12:59:50;14.10;80.50
35700;DHT22;21818;51.078;12.108;2023-12-22T13:02:17;14.10;80.50
35700;DHT22;21818;51.078;12.108;2023-12-22T13:04:43;14.10;80.40
35700;DHT22;21818;51.078;12.108;2023-12-22T13:07:08;14.10;80.40
35700;DHT22;21818;51.078;12.108;2023-12-22T13:09:35;14.00;80.40
35700;DHT22;21818;51.078;12.108;2023-12-22T13:12:03;14.00;80.30
35700;DHT22;21818;51.078;12.108;2023-12-22T13:14:29;14.00;80.30
35700;DHT22;21818;51.078;12.108;2023-12-22T13:16:56;14.00;80.30
35700;DHT22;21818;51.078;12.108;2023-12-22T13:19:25;14.00;80.30
35700;DHT22;21818;51.078;12.108;2023-12-22T13:21:55;14.00;80.30
35700;DHT22;21818;51.078;12.108;2023-12-22T13:24:21;14.00;80.30
35700;DHT22;21818;51.078;12.108;2023-12-22T13:26:58;14.00;80.30
35700;DHT22;21818;51.078;12.108;2023-12-22T13:29:23;14.00;80.20
35700;DHT22;21818;51.078;12.108;2023-12-22T13:31:49;14.00;80.20
35700;DHT22;21818;51.078;12.108;2023-12-22T14:18:16;14.10;79.90
35700;DHT22;21818;51.078;12.108;2023-12-22T14:20:41;14.10;79.90
35700;DHT22;21818;51.078;12.108;2023-12-22T14:23:07;14.10;79.90
35700;DHT22;21818;51.078;12.108;2023-12-22T14:25:32;14.10;79.90
35700;DHT22;21818;51.078;12.108;2023-12-22T14:27:58;14.10;80.00
35700;DHT22;21818;51.078;12.108;2023-12-22T14:30:24;14.10;80.00
35700;DHT22;21818;51.078;12.108;2023-12-22T14:32:50;14.10;80.00
35700;DHT22;21818;51.078;12.108;2023-12-22T14:35:15;14.10;80.00
35700;DHT22;21818;51.078;12.108;2023-12-22T14:37:42;14.10;79.90
35700;DHT22;21818;51.078;12.108;2023-12-22T14:40:08;14.10;79.90
35700;DHT22;21818;51.078;12.108;2023-12-22T14:42:34;14.10;79.90
35700;DHT22;21818;51.078;12.108;2023-12-22T14:44:59;14.10;79.90
35700;DHT22;21818;51.078;12.108;2023-12-22T14:47:27;14.10;79.90
35700;DHT22;21818;51.078;12.108;2023-12-22T14:49:52;14.10;80.00
35700;DHT22;21818;51.078;12.108;2023-12-22T14:52:18;14.10;79.90
35700;DHT22;21818;51.078;12.108;2023-12-22T14:54:43;14.10;79.90
35700;DHT22;21818;51.078;12.108;2023-12-22T14:57:09;14.00;79.80
35700;DHT22;21818;51.078;12.108;2023-12-22T14:59:35;14.00;79.80
35700;DHT22;21818;51.078;12.108;2023-12-22T15:02:01;14.10;79.90
35700;DHT22;21818;51.078;12.108;2023-12-22T15:04:26;14.00;79.80
35700;DHT22;21818;51.078;12.108;2023-12-22T15:06:52;14.00;79.90
35700;DHT22;21818;51.078;12.108;2023-12-22T15:09:17;14.00;79.80
35700;DHT22;21818;51.078;12.108;2023-12-22T15:11:44;14.00;79.80
35700;DHT22;21818;51.078;12.108;2023-12-22T15:14:11;14.00;79.80
35700;DHT22;21818;51.078;12.108;2023-12-22T15:16:40;14.00;79.90
35700;DHT22;21818;51.078;12.108;2023-12-22T15:19:07;14.00;79.80
35700;DHT22;21818;51.078;12.108;2023-12-22T15:21:32;14.00;79.80
35700;DHT22;21818;51.078;12.108;2023-12-22T15:23:58;14.00;79.80
35700;DHT22;21818;51.078;12.108;2023-12-22T15:26:24;14.00;79.80
35700;DHT22;21818;51.078;12.108;2023-12-22T15:28:51;14.00;79.80
35700;DHT22;21818;51.078;12.108;2023-12-22T15:31:17;14.00;79.80
35700;DHT22;21818;51.078;12.108;2023-12-22T15:33:42;14.00;79.80
35700;DHT22;21818;51.078;12.108;2023-12-22T15:36:08;14.00;79.80
35700;DHT22;21818;51.078;12.108;2023-12-22T15:38:33;14.00;79.80
35700;DHT22;21818;51.078;12.108;2023-12-22T15:41:02;14.00;79.80
35700;DHT22;21818;51.078;12.108;2023-12-22T15:43:28;14.00;79.80
35700;DHT22;21818;51.078;12.108;2023-12-22T15:45:54;14.00;79.80
35700;DHT22;21818;51.078;12.108;2023-12-22T15:48:19;14.00;79.80
35700;DHT22;21818;51.078;12.108;2023-12-22T15:50:45;14.00;79.80
35700;DHT22;21818;51.078;12.108;2023-12-22T15:53:12;14.00;79.80
35700;DHT22;21818;51.078;12.108;2023-12-22T15:55:37;14.00;79.70
35700;DHT22;21818;51.078;12.108;2023-12-22T15:58:03;14.00;79.70
35700;DHT22;21818;51.078;12.108;2023-12-22T16:00:29;14.00;79.70
35700;DHT22;21818;51.078;12.108;2023-12-22T16:02:54;14.00;79.70
35700;DHT22;21818;51.078;12.108;2023-12-22T16:05:20;14.00;79.70
35700;DHT22;21818;51.078;12.108;2023-12-22T16:07:45;14.00;79.70
35700;DHT22;21818;51.078;12.108;2023-12-22T16:10:11;14.00;79.60
35700;DHT22;21818;51.078;12.108;2023-12-22T16:12:37;14.00;79.60
35700;DHT22;21818;51.078;12.108;2023-12-22T16:15:03;14.00;79.60
35700;DHT22;21818;51.078;12.108;2023-12-22T16:17:29;14.00;79.60
35700;DHT22;21818;51.078;12.108;2023-12-22T16:19:55;14.00;80.10
35700;DHT22;21818;51.078;12.108;2023-12-22T16:22:20;14.00;79.60
35700;DHT22;21818;51.078;12.108;2023-12-22T16:24:46;14.00;79.60
35700;DHT22;21818;51.078;12.108;2023-12-22T16:27:12;14.00;79.60
35700;DHT22;21818;51.078;12.108;2023-12-22T16:29:40;14.00;79.50
35700;DHT22;21818;51.078;12.108;2023-12-22T16:32:06;14.00;79.50
35700;DHT22;21818;51.078;12.108;2023-12-22T16:34:32;14.00;79.50